Time;durP1;ratioP1;P1;durP2;ratioP2;P2;SDS_P1;SDS_P2;PMS_P1;PMS_P2;Temp;Humidity;BMP_temperature;BMP_pressure;BME280_temperature;BME280_humidity;BME280_pressure;Samples;Min_cycle;Max_cycle;Signal;HPM_P1;HPM_P2
2023/04/30 00:00:22;;;;;;;5.95;3.88;;;10.40;99.90;;;;;;5061999;28;20033;-77
2023/04/30 00:02:47;;;;;;;5.85;3.85;;;10.40;99.90;;;;;;5066225;28;20534;-79
2023/04/30 00:05:13;;;;;;;6.55;4.10;;;10.50;99.90;;;;;;5054073;28;20037;-78
2023/04/30 00:07:41;;;;;;;6.05;3.88;;;10.60;99.90;;;;;;5042804;28;20068;-78
2023/04/30 00:10:11;;;;;;;7.47;3.67;;;10.70;99.90;;;;;;5065307;28;20096;-77
2023/04/30 00:12:44;;;;;;;6.30;4.30;;;10.60;99.90;;;;;;5056959;28;20279;-78
2023/04/30 00:15:11;;;;;;;7.43;4.53;;;10.50;99.90;;;;;;5062635;28;20025;-78
2023/04/30 00:17:36;;;;;;;7.45;4.75;;;10.40;99.90;;;;;;5065690;28;20037;-77
2023/04/30 00:20:03;;;;;;;5.40;4.00;;;10.30;99.90;;;;;;5063855;28;20039;-78
2023/04/30 00:22:29;;;;;;;7.22;4.40;;;10.30;99.90;;;;;;5045531;28;20037;-79
2023/04/30 00:24:55;;;;;;;6.25;4.05;;;10.30;99.90;;;;;;5061497;28;20037;-78
2023/04/30 00:27:20;;;;;;;6.25;4.28;;;10.50;99.90;;;;;;5064481;28;20062;-79
2023/04/30 00:29:46;;;;;;;6.80;4.28;;;10.60;99.90;;;;;;5043542;28;20097;-78
2023/04/30 00:32:12;;;;;;;6.10;4.45;;;10.50;99.90;;;;;;5051692;28;20028;-78
2023/04/30 00:34:41;;;;;;;5.50;4.35;;;10.50;99.90;;;;;;5053257;28;20029;-77
2023/04/30 00:37:06;;;;;;;5.70;4.32;;;10.40;99.90;;;;;;5062830;28;20024;-78
2023/04/30 00:39:32;;;;;;;6.20;4.43;;;10.20;99.90;;;;;;5066865;28;20061;-77
2023/04/30 00:41:57;;;;;;;7.25;3.83;;;10.10;99.90;;;;;;5064744;28;20055;-79
2023/04/30 00:44:23;;;;;;;6.00;4.00;;;10.10;99.90;;;;;;5055170;28;20052;-78
2023/04/30 00:46:49;;;;;;;5.93;3.90;;;10.10;99.90;;;;;;5038799;28;20037;-78
2023/04/30 00:49:15;;;;;;;5.40;4.05;;;10.40;99.90;;;;;;5064527;28;20113;-79
2023/04/30 00:51:43;;;;;;;4.70;3.58;;;10.30;99.90;;;;;;5061821;28;20017;-78
2023/04/30 00:54:10;;;;;;;5.57;4.00;;;10.30;99.90;;;;;;5054718;28;20029;-79
2023/04/30 00:56:37;;;;;;;5.60;4.13;;;10.10;99.90;;;;;;5054915;28;20037;-78
2023/04/30 00:59:03;;;;;;;5.53;4.38;;;10.10;99.90;;;;;;5064314;28;20491;-77
2023/04/30 01:01:28;;;;;;;5.32;3.90;;;10.20;99.90;;;;;;5064045;28;20088;-77
2023/04/30 01:03:54;;;;;;;5.30;4.18;;;10.20;99.90;;;;;;5057776;28;20041;-77
2023/04/30 01:06:20;;;;;;;7.10;3.85;;;10.20;99.90;;;;;;5066560;28;20080;-78
2023/04/30 01:08:46;;;;;;;6.30;4.38;;;10.20;99.90;;;;;;5064876;28;20035;-79
2023/04/30 01:11:51;;;;;;;6.07;4.30;;;10.10;99.90;;;;;;5057815;28;20053;-78
2023/04/30 01:14:20;;;;;;;5.72;4.20;;;10.10;99.90;;;;;;5006496;28;20446;-80
2023/04/30 01:17:03;;;;;;;5.88;4.43;;;10.10;99.90;;;;;;5003736;28;20046;-79
2023/04/30 01:19:43;;;;;;;4.18;3.67;;;10.10;99.90;;;;;;4988188;28;20252;-78
2023/04/30 01:22:16;;;;;;;8.63;4.68;;;10.20;99.90;;;;;;4992852;28;20038;-79
2023/04/30 01:24:48;;;;;;;6.03;4.32;;;10.20;99.90;;;;;;5008300;28;20098;-78
2023/04/30 01:27:55;;;;;;;5.50;3.83;;;10.20;99.90;;;;;;5010711;28;20027;-80
2023/04/30 01:30:22;;;;;;;4.57;3.50;;;10.10;99.90;;;;;;4993934;28;20027;-82
2023/04/30 01:32:48;;;;;;;5.22;3.75;;;10.20;99.90;;;;;;5010474;28;20022;-82
2023/04/30 01:35:15;;;;;;;5.75;4.20;;;10.10;99.90;;;;;;4999547;28;20062;-77
2023/04/30 01:37:52;;;;;;;6.28;3.80;;;10.10;99.90;;;;;;5013135;28;20053;-81
2023/04/30 01:40:24;;;;;;;5.40;3.72;;;10.10;99.90;;;;;;5008256;28;20096;-79
2023/04/30 01:43:08;;;;;;;5.82;3.85;;;10.10;99.90;;;;;;5005868;28;20043;-79
2023/04/30 01:46:10;;;;;;;6.28;3.38;;;10.10;99.90;;;;;;5047658;28;20128;-78
2023/04/30 01:49:01;;;;;;;5.10;3.63;;;10.20;99.90;;;;;;5059925;28;20069;-79
2023/04/30 01:51:41;;;;;;;5.45;3.40;;;10.20;99.90;;;;;;5055692;28;20037;-79
2023/04/30 01:54:30;;;;;;;5.25;3.60;;;10.20;99.90;;;;;;5065697;28;20041;-81
2023/04/30 01:57:05;;;;;;;6.22;4.00;;;10.10;99.90;;;;;;5046636;28;20029;-82
2023/04/30 01:59:33;;;;;;;5.22;3.85;;;10.00;99.90;;;;;;5071051;28;20029;-81
2023/04/30 02:01:59;;;;;;;5.05;3.20;;;10.00;99.90;;;;;;5060153;28;20021;-79
2023/04/30 02:04:26;;;;;;;5.33;3.60;;;10.00;99.90;;;;;;5056320;28;20044;-79
2023/04/30 02:06:52;;;;;;;5.40;4.05;;;9.90;99.90;;;;;;5054484;28;20222;-81
2023/04/30 02:09:18;;;;;;;4.65;3.83;;;9.90;99.90;;;;;;5038230;28;20032;-77
2023/04/30 02:11:45;;;;;;;5.90;3.67;;;9.90;99.90;;;;;;5049031;28;20013;-79
2023/04/30 02:14:11;;;;;;;5.97;3.88;;;9.80;99.90;;;;;;5076502;28;20041;-79
2023/04/30 02:16:37;;;;;;;8.50;4.43;;;9.80;99.90;;;;;;5056329;28;20020;-78
2023/04/30 02:19:02;;;;;;;5.38;3.83;;;9.80;99.90;;;;;;5055462;28;20076;-79
2023/04/30 02:21:30;;;;;;;8.15;4.25;;;9.90;99.90;;;;;;5071586;28;20039;-79
2023/04/30 02:23:56;;;;;;;4.55;3.72;;;10.00;99.90;;;;;;5067670;28;20025;-80
2023/04/30 02:26:22;;;;;;;6.22;3.75;;;10.10;99.90;;;;;;5074863;28;20045;-78
2023/04/30 02:28:48;;;;;;;4.93;3.65;;;10.00;99.90;;;;;;5057591;28;20071;-78
2023/04/30 02:31:14;;;;;;;4.75;3.70;;;10.00;99.90;;;;;;5071857;28;20053;-78
2023/04/30 02:33:39;;;;;;;4.75;3.58;;;10.10;99.90;;;;;;5076701;28;20025;-83
2023/04/30 02:36:05;;;;;;;5.28;3.90;;;10.00;99.90;;;;;;5073508;28;20052;-78
2023/04/30 02:38:31;;;;;;;6.03;3.60;;;9.90;99.90;;;;;;5057420;28;20020;-82
2023/04/30 02:40:57;;;;;;;4.78;4.00;;;9.90;99.90;;;;;;5037991;28;20034;-79
2023/04/30 02:43:24;;;;;;;5.57;3.92;;;9.90;99.90;;;;;;5056254;28;20029;-78
2023/04/30 02:45:51;;;;;;;5.73;3.97;;;9.80;99.90;;;;;;5069832;28;20025;-80
2023/04/30 02:48:16;;;;;;;5.43;4.25;;;9.80;99.90;;;;;;5041101;28;20052;-78
2023/04/30 02:50:43;;;;;;;9.57;4.88;;;9.80;99.90;;;;;;5072191;28;20073;-81
2023/04/30 02:53:08;;;;;;;5.63;4.75;;;9.70;99.90;;;;;;5075550;28;20012;-79
2023/04/30 02:55:35;;;;;;;8.32;5.20;;;9.70;99.90;;;;;;5069700;23;20014;-36
2023/04/30 02:58:01;;;;;;;7.75;5.53;;;9.70;99.90;;;;;;5031215;28;20031;-38
2023/04/30 03:00:27;;;;;;;8.38;5.00;;;9.80;99.90;;;;;;5025542;28;20033;-36
2023/04/30 03:02:53;;;;;;;6.95;4.78;;;9.80;99.90;;;;;;5031099;28;20075;-37
2023/04/30 03:05:19;;;;;;;7.30;5.53;;;9.70;99.90;;;;;;5050324;28;20626;-37
2023/04/30 03:07:45;;;;;;;7.43;5.22;;;9.70;99.90;;;;;;5032011;28;20441;-37
2023/04/30 03:10:12;;;;;;;8.68;5.60;;;9.70;99.90;;;;;;5028300;28;20421;-37
2023/04/30 03:12:39;;;;;;;10.45;6.13;;;9.60;99.90;;;;;;5029695;28;20025;-37
2023/04/30 03:15:06;;;;;;;7.70;5.82;;;9.60;99.90;;;;;;5042311;28;20039;-37
2023/04/30 03:17:32;;;;;;;8.27;5.50;;;9.50;99.90;;;;;;5031959;28;20040;-37
2023/04/30 03:19:58;;;;;;;9.30;5.75;;;9.50;99.90;;;;;;5031090;28;20070;-37
2023/04/30 03:22:25;;;;;;;8.15;6.18;;;9.50;99.90;;;;;;5050114;28;20052;-37
2023/04/30 03:24:51;;;;;;;10.40;6.72;;;9.50;99.90;;;;;;5047962;28;20037;-37
2023/04/30 03:27:16;;;;;;;8.00;5.32;;;9.50;99.90;;;;;;5049348;28;20029;-37
2023/04/30 03:29:42;;;;;;;9.32;5.97;;;9.50;99.90;;;;;;5048612;28;20372;-37
2023/04/30 03:32:08;;;;;;;10.55;6.10;;;9.50;99.90;;;;;;5049886;28;20526;-37
2023/04/30 03:34:33;;;;;;;8.20;5.72;;;9.50;99.90;;;;;;5050756;28;20482;-37
2023/04/30 03:37:00;;;;;;;8.93;5.97;;;9.40;99.90;;;;;;5048431;28;20030;-37
2023/04/30 03:39:26;;;;;;;8.20;5.70;;;9.40;99.90;;;;;;5049907;28;20028;-37
2023/04/30 03:41:52;;;;;;;8.30;5.80;;;9.50;99.90;;;;;;5049858;28;20083;-37
2023/04/30 03:44:18;;;;;;;8.43;6.15;;;9.50;99.90;;;;;;5048695;28;20072;-37
2023/04/30 03:46:44;;;;;;;8.68;5.88;;;9.40;99.90;;;;;;5049639;28;20029;-37
2023/04/30 03:49:10;;;;;;;10.95;6.78;;;9.40;99.90;;;;;;5047701;28;20406;-37
2023/04/30 03:51:38;;;;;;;10.63;5.97;;;9.40;99.90;;;;;;5049974;28;20030;-37
2023/04/30 03:54:07;;;;;;;;;;;9.30;99.90;;;;;;5051090;28;20029;-37
2023/04/30 03:56:32;;;;;;;;;;;9.30;99.90;;;;;;5050758;28;20461;-37
2023/04/30 03:58:58;;;;;;;7.78;5.32;;;9.30;99.90;;;;;;5047659;28;20015;-37
2023/04/30 04:01:24;;;;;;;16.35;7.00;;;9.30;99.90;;;;;;5049417;28;20041;-36
2023/04/30 04:03:50;;;;;;;7.13;5.63;;;9.20;99.90;;;;;;5048653;28;20035;-37
2023/04/30 04:06:15;;;;;;;9.40;6.15;;;9.20;99.90;;;;;;5049653;28;20036;-36
2023/04/30 04:08:44;;;;;;;8.32;5.90;;;9.20;99.90;;;;;;5048405;28;20068;-37
2023/04/30 04:11:10;;;;;;;10.65;6.38;;;9.20;99.90;;;;;;5049840;28;20036;-36
2023/04/30 04:13:36;;;;;;;10.15;6.57;;;9.20;99.90;;;;;;5048855;28;20098;-37
2023/04/30 04:16:01;;;;;;;10.93;6.63;;;9.20;99.90;;;;;;5048683;28;20061;-37
2023/04/30 04:18:27;;;;;;;9.20;6.75;;;9.20;99.90;;;;;;5048839;28;20087;-37
2023/04/30 04:20:55;;;;;;;10.38;6.47;;;9.30;99.90;;;;;;5049366;28;20114;-37
2023/04/30 04:23:20;;;;;;;11.57;7.03;;;9.20;99.90;;;;;;5049206;28;20052;-36
2023/04/30 04:25:48;;;;;;;8.82;6.28;;;9.30;99.90;;;;;;5049985;28;20137;-37
2023/04/30 04:28:17;;;;;;;12.23;7.50;;;9.20;99.90;;;;;;5048840;28;20037;-37
2023/04/30 04:30:42;;;;;;;7.85;5.53;;;9.30;99.90;;;;;;5044819;28;20033;-37
2023/04/30 04:33:09;;;;;;;12.68;7.60;;;9.30;99.90;;;;;;5045518;28;20401;-37
2023/04/30 04:35:35;;;;;;;10.00;6.95;;;9.30;99.90;;;;;;5047815;28;20032;-37
2023/04/30 04:38:01;;;;;;;13.05;7.03;;;9.20;99.90;;;;;;5049298;28;20031;-37
2023/04/30 04:40:26;;;;;;;14.98;8.10;;;9.30;99.90;;;;;;5039743;28;20025;-37
2023/04/30 04:42:52;;;;;;;13.48;8.30;;;9.30;99.90;;;;;;5050881;28;20033;-37
2023/04/30 04:45:19;;;;;;;14.80;8.52;;;9.20;99.90;;;;;;5048395;28;20037;-37
2023/04/30 04:47:45;;;;;;;10.25;7.35;;;9.20;99.90;;;;;;5048408;28;20025;-37
2023/04/30 04:50:11;;;;;;;10.82;7.35;;;9.20;99.90;;;;;;5048499;28;20448;-37
2023/04/30 04:52:37;;;;;;;9.35;6.72;;;9.30;99.90;;;;;;5047191;28;20096;-37
2023/04/30 04:55:04;;;;;;;9.95;7.00;;;9.30;99.90;;;;;;5038072;28;20034;-37
2023/04/30 04:57:29;;;;;;;11.77;7.32;;;9.30;99.90;;;;;;5045635;28;20578;-37
2023/04/30 04:59:55;;;;;;;9.95;6.80;;;9.30;99.90;;;;;;5048234;28;20112;-37
2023/04/30 05:02:22;;;;;;;11.85;6.97;;;9.40;99.90;;;;;;5048354;28;20102;-37
2023/04/30 05:04:49;;;;;;;12.43;7.97;;;9.40;99.90;;;;;;5043557;28;20030;-37
2023/04/30 05:07:18;;;;;;;10.20;7.18;;;9.40;99.90;;;;;;5042477;28;20366;-37
2023/04/30 05:09:45;;;;;;;11.68;7.45;;;9.40;99.90;;;;;;5042666;28;20044;-36
2023/04/30 05:12:11;;;;;;;13.27;7.97;;;9.40;99.90;;;;;;5042605;28;20047;-37
2023/04/30 05:14:37;;;;;;;11.25;8.18;;;9.50;99.90;;;;;;5047143;28;20104;-37
2023/04/30 05:17:02;;;;;;;11.60;7.65;;;9.50;99.90;;;;;;5046905;28;20063;-37
2023/04/30 05:19:28;;;;;;;10.40;7.07;;;9.50;99.90;;;;;;5046980;28;20027;-37
2023/04/30 05:21:53;;;;;;;9.93;7.20;;;9.60;99.90;;;;;;5046310;28;20029;-37
2023/04/30 05:24:19;;;;;;;11.05;7.75;;;9.60;99.90;;;;;;5043615;28;20029;-37
2023/04/30 05:26:45;;;;;;;11.93;7.40;;;9.60;99.90;;;;;;5046942;28;20500;-36
2023/04/30 05:29:11;;;;;;;11.63;7.45;;;9.60;99.90;;;;;;5041967;28;20152;-37
2023/04/30 05:31:37;;;;;;;11.98;7.85;;;9.70;99.90;;;;;;5042625;28;20025;-37
2023/04/30 05:34:02;;;;;;;12.93;7.72;;;9.70;99.90;;;;;;5039090;28;20033;-37
2023/04/30 05:36:28;;;;;;;10.70;7.28;;;9.80;99.90;;;;;;5045374;28;20120;-37
2023/04/30 05:38:54;;;;;;;12.23;7.78;;;9.80;99.90;;;;;;5046178;28;20048;-36
2023/04/30 05:41:20;;;;;;;9.43;7.05;;;9.80;99.90;;;;;;5046312;28;20052;-36
2023/04/30 05:43:46;;;;;;;11.05;7.50;;;9.80;99.90;;;;;;5048007;28;20474;-37
2023/04/30 05:46:12;;;;;;;10.27;7.50;;;9.80;99.90;;;;;;5046281;28;20025;-37
2023/04/30 05:48:37;;;;;;;9.40;7.43;;;9.80;99.90;;;;;;5047752;28;20028;-37
2023/04/30 05:51:05;;;;;;;9.20;7.28;;;9.90;99.90;;;;;;5039928;28;20105;-37
2023/04/30 05:53:30;;;;;;;11.02;8.20;;;9.90;99.90;;;;;;5038158;28;20124;-37
2023/04/30 05:55:56;;;;;;;13.30;8.00;;;10.00;99.90;;;;;;5047632;28;20136;-37
2023/04/30 05:58:21;;;;;;;10.60;7.68;;;10.00;99.90;;;;;;5045459;28;21026;-36
2023/04/30 06:00:50;;;;;;;10.73;8.05;;;10.00;99.90;;;;;;5046283;28;20052;-37
2023/04/30 06:03:19;;;;;;;12.15;8.23;;;10.00;99.90;;;;;;5045525;28;20040;-37
2023/04/30 06:05:48;;;;;;;13.55;8.02;;;10.00;99.90;;;;;;5040933;28;20485;-37
2023/04/30 06:08:13;;;;;;;12.60;8.00;;;10.00;99.90;;;;;;5038332;28;20025;-37
2023/04/30 06:10:39;;;;;;;11.77;8.48;;;10.10;99.90;;;;;;5044813;28;20500;-36
2023/04/30 06:13:05;;;;;;;12.32;7.85;;;10.20;99.90;;;;;;5046325;28;20021;-37
2023/04/30 06:15:31;;;;;;;11.93;8.32;;;10.20;99.90;;;;;;5045055;28;20059;-37
2023/04/30 06:17:57;;;;;;;13.63;8.55;;;10.20;99.90;;;;;;5043408;28;20033;-36
2023/04/30 06:20:22;;;;;;;10.35;7.65;;;10.30;99.90;;;;;;5043371;28;20568;-37
2023/04/30 06:22:48;;;;;;;12.60;7.88;;;10.20;99.90;;;;;;5051098;28;20119;-37
2023/04/30 06:25:14;;;;;;;10.13;8.30;;;10.30;99.90;;;;;;5047918;28;20063;-37
2023/04/30 06:27:39;;;;;;;9.98;8.07;;;10.30;99.90;;;;;;5041339;28;20024;-37
2023/04/30 06:30:05;;;;;;;10.70;7.82;;;10.40;99.90;;;;;;5047938;28;20040;-37
2023/04/30 06:32:31;;;;;;;14.27;8.55;;;10.40;99.90;;;;;;5049059;28;20060;-37
2023/04/30 06:34:58;;;;;;;12.27;9.05;;;10.50;99.90;;;;;;5050438;28;20064;-37
2023/04/30 06:37:23;;;;;;;11.13;8.00;;;10.50;99.90;;;;;;5048598;28;20036;-37
2023/04/30 06:39:50;;;;;;;11.63;7.95;;;10.40;99.90;;;;;;5050871;28;20037;-37
2023/04/30 06:42:16;;;;;;;10.73;7.80;;;10.50;99.90;;;;;;5047159;28;20029;-37
2023/04/30 06:44:41;;;;;;;13.57;8.35;;;10.60;99.90;;;;;;5050255;28;20029;-37
2023/04/30 06:47:07;;;;;;;10.95;7.40;;;10.60;99.90;;;;;;5040619;28;20033;-37
2023/04/30 06:49:32;;;;;;;9.60;7.90;;;10.70;99.90;;;;;;5048302;28;20033;-37
2023/04/30 06:51:58;;;;;;;10.65;7.30;;;10.80;99.90;;;;;;5048240;28;20432;-37
2023/04/30 06:54:25;;;;;;;10.40;7.30;;;10.80;99.90;;;;;;5029253;28;20036;-37
2023/04/30 06:56:51;;;;;;;9.93;7.63;;;10.90;99.90;;;;;;5042318;28;20569;-36
2023/04/30 06:59:17;;;;;;;13.10;7.68;;;11.00;99.90;;;;;;5021667;28;20108;-37
2023/04/30 07:01:42;;;;;;;11.10;7.97;;;11.20;99.90;;;;;;5046300;28;20768;-36
2023/04/30 07:04:08;;;;;;;10.98;8.25;;;11.30;99.90;;;;;;5049285;28;20041;-36
2023/04/30 07:06:33;;;;;;;9.52;7.45;;;11.40;99.90;;;;;;5049398;28;20029;-36
2023/04/30 07:08:59;;;;;;;9.18;6.63;;;11.60;99.90;;;;;;5039866;28;20033;-37
2023/04/30 07:11:24;;;;;;;9.80;7.85;;;11.60;99.90;;;;;;5042867;28;20023;-36
2023/04/30 07:13:50;;;;;;;7.80;6.93;;;11.60;99.90;;;;;;5034733;28;20029;-36
2023/04/30 07:16:16;;;;;;;9.30;6.88;;;11.70;99.90;;;;;;5044773;28;20021;-37
2023/04/30 07:18:42;;;;;;;8.82;7.07;;;11.90;99.90;;;;;;5047065;28;20886;-37
2023/04/30 07:21:07;;;;;;;9.40;7.72;;;12.00;99.90;;;;;;5049330;28;20191;-37
2023/04/30 07:23:33;;;;;;;10.93;7.00;;;12.00;99.90;;;;;;5047886;28;20032;-36
2023/04/30 07:25:59;;;;;;;8.48;6.57;;;11.80;99.90;;;;;;5029130;28;20090;-36
2023/04/30 07:28:25;;;;;;;9.85;6.88;;;11.90;99.90;;;;;;5038460;28;20025;-37
2023/04/30 07:30:51;;;;;;;9.25;7.22;;;12.00;99.90;;;;;;5038512;28;20036;-36
2023/04/30 07:33:16;;;;;;;10.02;7.35;;;12.10;99.90;;;;;;5045511;28;20048;-37
2023/04/30 07:35:42;;;;;;;9.90;6.95;;;12.30;99.90;;;;;;5039714;28;20688;-36
2023/04/30 07:38:07;;;;;;;10.65;7.40;;;12.20;99.90;;;;;;5044031;28;20029;-37
2023/04/30 07:40:33;;;;;;;8.82;6.65;;;12.20;99.90;;;;;;5046704;28;20427;-37
2023/04/30 07:42:59;;;;;;;8.27;6.43;;;12.40;99.90;;;;;;5039790;28;20025;-37
2023/04/30 07:45:24;;;;;;;7.53;5.93;;;12.40;99.90;;;;;;5045563;28;20131;-37
2023/04/30 07:47:50;;;;;;;8.05;6.40;;;12.70;99.90;;;;;;5045005;28;20037;-37
2023/04/30 07:50:16;;;;;;;7.55;6.78;;;12.70;99.90;;;;;;5045968;28;20017;-37
2023/04/30 07:52:41;;;;;;;11.02;6.60;;;12.50;99.90;;;;;;5033690;28;20517;-37
2023/04/30 07:55:07;;;;;;;9.27;6.60;;;12.60;99.90;;;;;;5046976;28;20158;-37
2023/04/30 07:57:33;;;;;;;7.45;6.00;;;12.70;99.90;;;;;;5048920;28;20152;-37
2023/04/30 07:59:58;;;;;;;7.18;5.93;;;12.60;99.90;;;;;;5049065;28;20040;-37
2023/04/30 08:02:24;;;;;;;8.45;6.50;;;12.60;99.90;;;;;;5048101;28;20071;-37
2023/04/30 08:04:50;;;;;;;7.35;6.60;;;12.60;99.90;;;;;;5045757;28;20159;-36
2023/04/30 08:07:15;;;;;;;8.38;6.22;;;12.50;99.90;;;;;;5042491;28;20453;-37
2023/04/30 08:09:41;;;;;;;8.10;6.45;;;12.90;99.90;;;;;;5039826;28;20420;-36
2023/04/30 08:12:08;;;;;;;9.32;6.22;;;13.40;99.90;;;;;;5045713;28;20036;-37
2023/04/30 08:14:33;;;;;;;8.43;6.63;;;13.30;99.90;;;;;;5047122;28;20025;-37
2023/04/30 08:16:59;;;;;;;10.98;6.75;;;13.50;99.90;;;;;;5046622;28;20048;-36
2023/04/30 08:19:25;;;;;;;8.68;5.95;;;13.70;99.90;;;;;;5036747;28;20025;-36
2023/04/30 08:21:51;;;;;;;6.32;5.20;;;13.70;99.90;;;;;;5029603;28;20033;-37
2023/04/30 08:24:17;;;;;;;5.35;4.85;;;13.80;99.90;;;;;;5045097;28;20040;-37
2023/04/30 08:26:43;;;;;;;6.75;4.82;;;13.60;99.90;;;;;;5047111;28;20037;-37
2023/04/30 08:29:08;;;;;;;5.53;4.93;;;13.30;99.90;;;;;;5047395;28;20032;-37
2023/04/30 08:31:34;;;;;;;8.90;5.18;;;13.10;99.90;;;;;;5043662;28;20506;-37
2023/04/30 08:34:00;;;;;;;7.85;5.13;;;13.00;99.90;;;;;;5046728;28;20025;-37
2023/04/30 08:36:26;;;;;;;6.95;4.78;;;13.10;99.90;;;;;;5044811;28;20481;-37
2023/04/30 08:38:52;;;;;;;5.80;4.88;;;13.10;99.90;;;;;;5043305;28;20486;-37
2023/04/30 08:41:21;;;;;;;5.13;4.63;;;13.40;99.90;;;;;;5040659;28;20037;-37
2023/04/30 08:43:51;;;;;;;5.63;4.32;;;14.10;99.90;;;;;;5045978;28;20051;-37
2023/04/30 08:46:17;;;;;;;7.18;4.80;;;14.00;99.90;;;;;;5045184;28;20704;-36
2023/04/30 08:48:43;;;;;;;5.80;4.57;;;13.40;99.90;;;;;;5046532;28;20417;-36
2023/04/30 08:51:09;;;;;;;4.97;4.28;;;13.20;99.90;;;;;;5041364;28;20064;-37
2023/04/30 08:53:39;;;;;;;5.20;4.22;;;13.30;99.90;;;;;;5039051;28;20541;-37
2023/04/30 08:56:05;;;;;;;7.28;5.57;;;13.30;99.90;;;;;;5044324;28;20057;-37
2023/04/30 08:58:31;;;;;;;8.02;5.38;;;13.30;99.90;;;;;;5045911;28;20033;-37
2023/04/30 09:00:58;;;;;;;6.38;5.75;;;13.20;99.90;;;;;;5023695;28;20048;-37
2023/04/30 09:03:24;;;;;;;6.65;5.63;;;13.20;99.90;;;;;;5042788;28;20045;-37
2023/04/30 09:05:50;;;;;;;6.50;5.40;;;13.30;99.90;;;;;;5046288;28;20390;-37
2023/04/30 09:08:39;;;;;;;6.80;5.28;;;13.30;99.90;;;;;;5047728;28;20025;-37
2023/04/30 09:11:23;;;;;;;7.45;5.65;;;13.20;99.90;;;;;;5046840;28;20510;-37
2023/04/30 09:13:51;;;;;;;7.40;5.57;;;13.20;99.90;;;;;;5045733;28;20021;-37
2023/04/30 09:16:18;;;;;;;7.05;5.63;;;13.30;99.90;;;;;;5045691;28;20394;-37
2023/04/30 09:18:43;;;;;;;6.68;5.57;;;13.40;99.90;;;;;;5045052;28;20669;-37
2023/04/30 09:21:09;;;;;;;5.88;5.20;;;13.40;99.90;;;;;;5044988;28;20039;-36
2023/04/30 09:23:35;;;;;;;5.95;5.00;;;13.40;99.90;;;;;;5047359;28;20037;-36
2023/04/30 09:26:00;;;;;;;4.47;4.07;;;13.40;99.90;;;;;;5045570;28;20355;-36
2023/04/30 09:28:27;;;;;;;5.25;4.30;;;13.50;99.90;;;;;;5043585;28;20473;-36
2023/04/30 09:30:55;;;;;;;4.38;3.47;;;13.50;99.90;;;;;;5039687;28;21197;-36
2023/04/30 09:33:21;;;;;;;5.30;4.47;;;13.40;99.90;;;;;;5044753;28;20028;-36
2023/04/30 09:35:48;;;;;;;4.80;4.38;;;13.40;99.90;;;;;;5043706;28;20659;-36
2023/04/30 09:38:30;;;;;;;5.38;3.90;;;13.40;99.90;;;;;;5046693;28;20029;-36
2023/04/30 09:41:00;;;;;;;4.88;4.35;;;13.30;99.90;;;;;;5044684;28;20033;-36
2023/04/30 09:43:27;;;;;;;4.38;3.55;;;13.20;99.90;;;;;;5046116;28;20033;-36
2023/04/30 09:45:52;;;;;;;4.95;4.25;;;13.30;99.90;;;;;;5039842;28;20021;-36
2023/04/30 09:48:21;;;;;;;4.80;4.28;;;13.30;99.90;;;;;;5047990;28;20032;-36
2023/04/30 09:50:48;;;;;;;4.78;4.35;;;13.40;99.90;;;;;;5030974;28;20056;-36
2023/04/30 09:53:16;;;;;;;4.97;4.45;;;13.40;99.90;;;;;;5046593;28;20250;-36
2023/04/30 09:55:47;;;;;;;4.93;4.43;;;13.40;99.90;;;;;;5045381;28;20112;-36
2023/04/30 09:58:14;;;;;;;4.43;4.03;;;13.40;99.90;;;;;;5049391;28;20083;-36
2023/04/30 10:00:41;;;;;;;4.63;3.33;;;13.40;99.90;;;;;;5049322;28;20036;-37
2023/04/30 10:03:12;;;;;;;4.80;4.30;;;13.50;99.90;;;;;;5051223;28;20086;-36
2023/04/30 10:05:46;;;;;;;4.65;3.78;;;13.70;99.90;;;;;;5049532;28;20104;-36
2023/04/30 10:08:22;;;;;;;4.93;4.43;;;13.80;99.90;;;;;;5051247;28;20493;-37
2023/04/30 10:10:52;;;;;;;4.50;4.10;;;13.60;99.90;;;;;;5050906;28;20040;-37
2023/04/30 10:13:20;;;;;;;4.38;3.85;;;13.50;99.90;;;;;;5048301;28;20393;-37
2023/04/30 10:15:50;;;;;;;4.35;3.90;;;13.50;99.90;;;;;;5050710;28;20033;-37
2023/04/30 10:18:22;;;;;;;4.25;3.85;;;13.60;99.90;;;;;;5050727;28;20111;-37
2023/04/30 10:20:49;;;;;;;4.93;4.13;;;13.70;99.90;;;;;;5051464;28;20072;-37
2023/04/30 10:23:15;;;;;;;6.05;4.20;;;13.80;99.90;;;;;;5031988;28;20097;-37
2023/04/30 10:25:42;;;;;;;5.38;4.55;;;13.90;99.90;;;;;;5052252;28;20029;-37
2023/04/30 10:28:09;;;;;;;4.38;3.97;;;13.90;99.90;;;;;;5049964;28;20575;-37
2023/04/30 10:30:35;;;;;;;4.85;4.35;;;13.90;99.90;;;;;;5051363;28;20596;-36
2023/04/30 10:33:52;;;;;;;5.40;3.95;;;13.90;99.90;;;;;;5050608;28;20044;-36
2023/04/30 10:36:31;;;;;;;6.53;4.05;;;13.70;99.90;;;;;;5002499;28;20070;-37
2023/04/30 10:38:58;;;;;;;4.43;4.03;;;13.70;99.90;;;;;;5033188;28;20048;-37
2023/04/30 10:41:26;;;;;;;4.85;3.92;;;13.80;99.90;;;;;;5051733;28;20020;-37
2023/04/30 10:43:56;;;;;;;4.25;3.63;;;13.80;99.90;;;;;;5047996;28;20598;-37
2023/04/30 10:46:23;;;;;;;4.97;3.58;;;13.90;99.90;;;;;;5050775;28;20111;-37
2023/04/30 10:48:52;;;;;;;5.95;3.00;;;14.00;99.90;;;;;;5051639;28;20029;-37
2023/04/30 10:51:19;;;;;;;4.30;3.30;;;14.10;99.90;;;;;;5050917;28;20043;-37
2023/04/30 10:53:50;;;;;;;4.13;3.23;;;14.30;99.90;;;;;;5041155;28;20033;-37
2023/04/30 10:56:30;;;;;;;3.47;3.17;;;14.40;99.90;;;;;;5050546;28;20076;-37
2023/04/30 10:59:00;;;;;;;3.70;3.40;;;14.10;99.90;;;;;;5050900;28;20028;-37
2023/04/30 11:01:25;;;;;;;3.80;3.40;;;14.00;99.90;;;;;;5046382;28;20059;-37
2023/04/30 11:04:05;;;;;;;5.20;3.53;;;14.00;99.90;;;;;;5050256;28;20029;-37
2023/04/30 11:06:52;;;;;;;3.25;2.95;;;14.00;99.90;;;;;;5047315;28;20119;-37
2023/04/30 11:09:18;;;;;;;3.47;3.17;;;13.90;99.90;;;;;;5050996;28;20116;-37
2023/04/30 11:11:45;;;;;;;4.07;3.58;;;13.90;99.90;;;;;;5040679;28;20852;-37
2023/04/30 11:14:11;;;;;;;3.75;3.42;;;14.10;99.90;;;;;;5047581;28;20021;-37
2023/04/30 11:16:37;;;;;;;3.67;3.38;;;14.10;99.90;;;;;;5049857;28;20029;-37
2023/04/30 11:19:10;;;;;;;3.63;3.05;;;14.20;99.90;;;;;;5045656;28;20444;-37
2023/04/30 11:21:40;;;;;;;4.57;3.33;;;14.10;99.90;;;;;;5036761;28;20028;-37
2023/04/30 11:24:06;;;;;;;3.40;3.10;;;14.20;99.90;;;;;;5033868;28;20044;-38
2023/04/30 11:27:07;;;;;;;3.28;2.92;;;14.10;99.90;;;;;;5049915;28;20068;-38
2023/04/30 11:29:33;;;;;;;4.40;3.10;;;14.10;99.90;;;;;;5048338;28;20080;-38
2023/04/30 11:32:03;;;;;;;3.33;2.95;;;14.20;99.90;;;;;;5049807;28;20509;-37
2023/04/30 11:34:30;;;;;;;3.60;3.05;;;14.30;99.90;;;;;;5050367;28;20424;-38
2023/04/30 11:36:58;;;;;;;3.08;2.78;;;14.50;99.90;;;;;;5046087;28;20028;-38
2023/04/30 11:39:27;;;;;;;3.03;2.83;;;14.70;99.90;;;;;;5046795;28;20045;-38
2023/04/30 11:41:52;;;;;;;;;;;14.60;99.90;;;;;;5050385;28;20033;-38
2023/04/30 11:44:22;;;;;;;2.80;2.60;;;14.70;99.90;;;;;;5049582;28;19913;-37
2023/04/30 11:46:48;;;;;;;3.30;2.25;;;14.80;99.90;;;;;;5042233;28;20041;-38
2023/04/30 11:49:14;;;;;;;3.63;2.85;;;14.80;99.90;;;;;;5042992;28;20449;-37
2023/04/30 11:51:40;;;;;;;2.90;2.50;;;14.90;99.90;;;;;;5050194;28;20028;-38
2023/04/30 11:54:08;;;;;;;3.78;3.05;;;14.90;99.90;;;;;;5048426;28;20104;-38
2023/04/30 11:56:37;;;;;;;2.92;2.55;;;15.00;99.90;;;;;;5046450;28;20052;-37
2023/04/30 11:59:09;;;;;;;2.67;2.47;;;15.00;99.90;;;;;;5044243;28;20033;-38
2023/04/30 12:01:39;;;;;;;3.10;2.90;;;14.90;99.90;;;;;;5044060;28;20033;-38
2023/04/30 12:04:05;;;;;;;3.95;2.88;;;15.00;99.90;;;;;;5042534;28;20029;-38
2023/04/30 12:06:31;;;;;;;2.83;2.63;;;14.90;99.90;;;;;;5045894;28;20140;-38
2023/04/30 12:09:03;;;;;;;4.40;3.28;;;14.90;99.90;;;;;;5031276;28;20055;-37
2023/04/30 12:11:30;;;;;;;3.72;3.30;;;15.00;99.90;;;;;;5045942;28;20025;-38
2023/04/30 12:14:13;;;;;;;4.70;3.30;;;14.90;99.90;;;;;;5047182;28;20036;-38
2023/04/30 12:16:50;;;;;;;5.05;4.00;;;14.80;99.90;;;;;;5034650;28;20399;-38
2023/04/30 12:19:21;;;;;;;4.10;3.65;;;14.80;99.90;;;;;;5040103;28;20065;-38
2023/04/30 12:21:48;;;;;;;3.00;2.80;;;14.90;99.90;;;;;;5020835;28;20060;-38
2023/04/30 12:24:15;;;;;;;3.83;3.15;;;14.80;99.90;;;;;;5026991;28;20052;-38
2023/04/30 12:26:41;;;;;;;3.22;2.72;;;14.90;99.90;;;;;;5026236;28;20067;-38
2023/04/30 12:29:13;;;;;;;3.67;3.05;;;15.10;99.90;;;;;;5043190;28;20490;-38
2023/04/30 12:31:39;;;;;;;3.10;2.90;;;15.10;99.10;;;;;;5041767;28;20029;-38
2023/04/30 12:34:10;;;;;;;3.85;2.92;;;15.00;97.80;;;;;;5043851;28;20493;-38
2023/04/30 12:36:37;;;;;;;3.33;3.03;;;15.00;99.90;;;;;;5041293;28;20047;-38
2023/04/30 12:39:08;;;;;;;4.25;3.00;;;14.80;99.90;;;;;;5040095;28;20029;-38
2023/04/30 12:41:47;;;;;;;4.18;3.35;;;14.80;99.90;;;;;;5012881;28;20021;-38
2023/04/30 12:44:18;;;;;;;4.57;3.63;;;14.80;99.90;;;;;;5037874;28;20112;-38
2023/04/30 12:46:46;;;;;;;3.10;2.80;;;14.90;99.90;;;;;;5047220;28;20136;-38
2023/04/30 12:49:11;;;;;;;3.63;3.22;;;14.90;99.90;;;;;;5043050;28;20048;-38
2023/04/30 12:51:41;;;;;;;3.30;3.00;;;14.70;99.90;;;;;;5041506;28;20722;-38